sensor_id;sensor_type;location;lat;lon;timestamp;temperature;humidity
15288;DHT22;7745;48.708;9.026;2023-04-21T00:01:26;4.90;99.90
15288;DHT22;7745;48.708;9.026;2023-04-21T00:03:54;4.90;99.90
15288;DHT22;7745;48.708;9.026;2023-04-21T00:06:21;4.90;99.90
15288;DHT22;7745;48.708;9.026;2023-04-21T00:08:47;4.90;99.90
15288;DHT22;7745;48.708;9.026;2023-04-21T00:11:15;4.80;99.90
15288;DHT22;7745;48.708;9.026;2023-04-21T00:13:42;4.80;99.90
15288;DHT22;7745;48.708;9.026;2023-04-21T00:16:09;4.70;99.90
15288;DHT22;7745;48.708;9.026;2023-04-21T00:18:37;4.70;99.90
15288;DHT22;7745;48.708;9.026;2023-04-21T00:21:04;4.80;99.90
15288;DHT22;7745;48.708;9.026;2023-04-21T00:23:31;4.80;99.90
15288;DHT22;7745;48.708;9.026;2023-04-21T00:25:58;4.80;99.90
15288;DHT22;7745;48.708;9.026;2023-04-21T00:28:27;4.80;99.90
15288;DHT22;7745;48.708;9.026;2023-04-21T00:30:53;4.80;99.90
15288;DHT22;7745;48.708;9.026;2023-04-21T00:33:21;4.80;99.90
15288;DHT22;7745;48.708;9.026;2023-04-21T00:35:49;4.80;99.90
15288;DHT22;7745;48.708;9.026;2023-04-21T00:38:15;4.80;99.90
15288;DHT22;7745;48.708;9.026;2023-04-21T00:40:42;4.80;99.90
15288;DHT22;7745;48.708;9.026;2023-04-21T00:43:09;4.80;99.90
15288;DHT22;7745;48.708;9.026;2023-04-21T00:45:36;4.80;99.90
15288;DHT22;7745;48.708;9.026;2023-04-21T00:48:03;4.80;99.90
15288;DHT22;7745;48.708;9.026;2023-04-21T00:50:31;4.80;99.90
15288;DHT22;7745;48.708;9.026;2023-04-21T00:52:59;5.10;99.90
15288;DHT22;7745;48.708;9.026;2023-04-21T00:55:26;4.80;99.90
15288;DHT22;7745;48.708;9.026;2023-04-21T00:57:54;4.70;99.90
15288;DHT22;7745;48.708;9.026;2023-04-21T01:00:21;4.70;99.90
15288;DHT22;7745;48.708;9.026;2023-04-21T01:02:48;5.00;99.90
15288;DHT22;7745;48.708;9.026;2023-04-21T01:05:15;4.70;99.90
15288;DHT22;7745;48.708;9.026;2023-04-21T01:07:43;4.70;99.90
15288;DHT22;7745;48.708;9.026;2023-04-21T01:10:11;4.60;99.90
15288;DHT22;7745;48.708;9.026;2023-04-21T01:12:41;4.60;99.90
15288;DHT22;7745;48.708;9.026;2023-04-21T01:15:10;4.60;99.90
15288;DHT22;7745;48.708;9.026;2023-04-21T01:17:37;4.60;99.90
15288;DHT22;7745;48.708;9.026;2023-04-21T01:20:07;4.60;99.90
15288;DHT22;7745;48.708;9.026;2023-04-21T01:22:38;4.50;99.90
15288;DHT22;7745;48.708;9.026;2023-04-21T01:25:06;4.50;99.90
15288;DHT22;7745;48.708;9.026;2023-04-21T01:27:33;4.40;99.90
15288;DHT22;7745;48.708;9.026;2023-04-21T01:30:00;4.30;99.90
15288;DHT22;7745;48.708;9.026;2023-04-21T01:32:28;4.30;99.90
15288;DHT22;7745;48.708;9.026;2023-04-21T01:34:57;4.20;99.90
15288;DHT22;7745;48.708;9.026;2023-04-21T01:37:26;4.10;99.90
15288;DHT22;7745;48.708;9.026;2023-04-21T01:39:57;4.10;99.90
15288;DHT22;7745;48.708;9.026;2023-04-21T01:42:26;4.00;99.90
15288;DHT22;7745;48.708;9.026;2023-04-21T01:44:54;3.90;99.90
15288;DHT22;7745;48.708;9.026;2023-04-21T01:47:21;3.90;99.90
15288;DHT22;7745;48.708;9.026;2023-04-21T01:49:48;3.80;99.90
15288;DHT22;7745;48.708;9.026;2023-04-21T01:52:15;3.70;99.90
15288;DHT22;7745;48.708;9.026;2023-04-21T01:54:42;3.70;99.90
15288;DHT22;7745;48.708;9.026;2023-04-21T01:57:10;3.70;99.90
15288;DHT22;7745;48.708;9.026;2023-04-21T01:59:37;3.60;99.90
15288;DHT22;7745;48.708;9.026;2023-04-21T02:02:04;3.60;99.90
15288;DHT22;7745;48.708;9.026;2023-04-21T02:04:31;3.60;99.90
15288;DHT22;7745;48.708;9.026;2023-04-21T02:06:57;3.50;99.90
15288;DHT22;7745;48.708;9.026;2023-04-21T02:09:24;3.50;99.90
15288;DHT22;7745;48.708;9.026;2023-04-21T02:11:51;3.40;99.90
15288;DHT22;7745;48.708;9.026;2023-04-21T02:14:19;3.40;99.90
15288;DHT22;7745;48.708;9.026;2023-04-21T02:16:46;3.40;99.90
15288;DHT22;7745;48.708;9.026;2023-04-21T02:19:13;3.40;99.90
15288;DHT22;7745;48.708;9.026;2023-04-21T02:21:40;3.30;99.90
15288;DHT22;7745;48.708;9.026;2023-04-21T02:24:06;3.30;99.90
15288;DHT22;7745;48.708;9.026;2023-04-21T02:26:33;3.30;99.90
15288;DHT22;7745;48.708;9.026;2023-04-21T02:29:00;3.20;99.90
15288;DHT22;7745;48.708;9.026;2023-04-21T02:31:28;3.20;99.90
15288;DHT22;7745;48.708;9.026;2023-04-21T02:33:55;3.20;99.90
15288;DHT22;7745;48.708;9.026;2023-04-21T02:36:23;3.10;99.90
15288;DHT22;7745;48.708;9.026;2023-04-21T02:38:50;3.10;99.90
15288;DHT22;7745;48.708;9.026;2023-04-21T02:41:17;3.10;99.90
15288;DHT22;7745;48.708;9.026;2023-04-21T02:43:44;3.10;99.90
15288;DHT22;7745;48.708;9.026;2023-04-21T02:46:10;3.10;99.90
15288;DHT22;7745;48.708;9.026;2023-04-21T02:48:38;3.10;99.90
15288;DHT22;7745;48.708;9.026;2023-04-21T02:51:10;3.00;99.90
15288;DHT22;7745;48.708;9.026;2023-04-21T02:53:37;3.00;99.90
15288;DHT22;7745;48.708;9.026;2023-04-21T02:56:05;3.00;99.90
15288;DHT22;7745;48.708;9.026;2023-04-21T02:58:33;3.00;99.90
15288;DHT22;7745;48.708;9.026;2023-04-21T03:01:00;3.00;99.90
15288;DHT22;7745;48.708;9.026;2023-04-21T03:03:27;3.00;99.90
15288;DHT22;7745;48.708;9.026;2023-04-21T03:05:58;3.00;99.90
15288;DHT22;7745;48.708;9.026;2023-04-21T03:08:26;2.90;99.90
15288;DHT22;7745;48.708;9.026;2023-04-21T03:10:53;2.90;99.90
15288;DHT22;7745;48.708;9.026;2023-04-21T03:13:20;2.90;99.90
15288;DHT22;7745;48.708;9.026;2023-04-21T03:15:47;2.90;99.90
15288;DHT22;7745;48.708;9.026;2023-04-21T03:18:14;2.80;99.90
15288;DHT22;7745;48.708;9.026;2023-04-21T03:20:41;2.80;99.90
15288;DHT22;7745;48.708;9.026;2023-04-21T03:23:10;2.80;99.90
15288;DHT22;7745;48.708;9.026;2023-04-21T03:25:37;2.80;99.90
15288;DHT22;7745;48.708;9.026;2023-04-21T03:28:04;2.90;99.90
15288;DHT22;7745;48.708;9.026;2023-04-21T03:30:31;3.00;99.90
15288;DHT22;7745;48.708;9.026;2023-04-21T03:32:58;3.00;99.90
15288;DHT22;7745;48.708;9.026;2023-04-21T03:35:25;3.00;99.90
15288;DHT22;7745;48.708;9.026;2023-04-21T03:37:52;3.00;99.90
15288;DHT22;7745;48.708;9.026;2023-04-21T03:40:21;2.90;99.90
15288;DHT22;7745;48.708;9.026;2023-04-21T03:42:47;2.90;99.90
15288;DHT22;7745;48.708;9.026;2023-04-21T03:45:15;2.90;99.90
15288;DHT22;7745;48.708;9.026;2023-04-21T03:47:44;2.90;99.90
15288;DHT22;7745;48.708;9.026;2023-04-21T03:50:10;3.00;99.90
15288;DHT22;7745;48.708;9.026;2023-04-21T03:52:37;3.00;99.90
15288;DHT22;7745;48.708;9.026;2023-04-21T03:55:05;2.90;99.90
15288;DHT22;7745;48.708;9.026;2023-04-21T03:57:37;3.00;99.90
15288;DHT22;7745;48.708;9.026;2023-04-21T04:00:06;3.00;99.90
15288;DHT22;7745;48.708;9.026;2023-04-21T04:02:34;3.00;99.90
15288;DHT22;7745;48.708;9.026;2023-04-21T04:05:01;3.00;99.90
15288;DHT22;7745;48.708;9.026;2023-04-21T04:07:27;3.00;99.90
15288;DHT22;7745;48.708;9.026;2023-04-21T04:09:55;3.00;99.90
15288;DHT22;7745;48.708;9.026;2023-04-21T04:12:22;3.00;99.90
15288;DHT22;7745;48.708;9.026;2023-04-21T04:14:50;3.00;99.90
15288;DHT22;7745;48.708;9.026;2023-04-21T04:17:16;3.00;99.90
15288;DHT22;7745;48.708;9.026;2023-04-21T04:19:43;2.90;99.90
15288;DHT22;7745;48.708;9.026;2023-04-21T04:22:10;3.00;99.90
15288;DHT22;7745;48.708;9.026;2023-04-21T04:24:37;3.00;99.90
15288;DHT22;7745;48.708;9.026;2023-04-21T04:27:04;3.00;99.90
15288;DHT22;7745;48.708;9.026;2023-04-21T04:29:31;2.90;99.90
15288;DHT22;7745;48.708;9.026;2023-04-21T04:31:59;3.00;99.90
15288;DHT22;7745;48.708;9.026;2023-04-21T04:34:28;3.00;99.90
15288;DHT22;7745;48.708;9.026;2023-04-21T04:36:55;3.00;99.90
15288;DHT22;7745;48.708;9.026;2023-04-21T04:39:22;3.00;99.90
15288;DHT22;7745;48.708;9.026;2023-04-21T04:41:50;3.00;99.90
15288;DHT22;7745;48.708;9.026;2023-04-21T04:44:17;3.00;99.90
15288;DHT22;7745;48.708;9.026;2023-04-21T04:46:43;3.00;99.90
15288;DHT22;7745;48.708;9.026;2023-04-21T04:49:12;3.00;99.90
15288;DHT22;7745;48.708;9.026;2023-04-21T04:51:39;3.10;99.90
15288;DHT22;7745;48.708;9.026;2023-04-21T04:54:06;3.10;99.90
15288;DHT22;7745;48.708;9.026;2023-04-21T04:56:33;3.10;99.90
15288;DHT22;7745;48.708;9.026;2023-04-21T04:59:00;3.20;99.90
15288;DHT22;7745;48.708;9.026;2023-04-21T05:01:27;3.20;99.90
15288;DHT22;7745;48.708;9.026;2023-04-21T05:03:55;3.10;99.90
15288;DHT22;7745;48.708;9.026;2023-04-21T05:06:23;3.10;99.90
15288;DHT22;7745;48.708;9.026;2023-04-21T05:08:50;3.20;99.90
15288;DHT22;7745;48.708;9.026;2023-04-21T05:11:17;3.20;99.90
15288;DHT22;7745;48.708;9.026;2023-04-21T05:13:44;3.20;99.90
15288;DHT22;7745;48.708;9.026;2023-04-21T05:16:10;3.20;99.90
15288;DHT22;7745;48.708;9.026;2023-04-21T05:18:37;3.30;99.90
15288;DHT22;7745;48.708;9.026;2023-04-21T05:21:04;3.30;99.90
15288;DHT22;7745;48.708;9.026;2023-04-21T05:23:33;3.40;99.90
15288;DHT22;7745;48.708;9.026;2023-04-21T05:25:59;3.40;99.90
15288;DHT22;7745;48.708;9.026;2023-04-21T05:28:26;3.40;99.90
15288;DHT22;7745;48.708;9.026;2023-04-21T05:30:54;3.50;99.90
15288;DHT22;7745;48.708;9.026;2023-04-21T05:33:21;3.60;99.90
15288;DHT22;7745;48.708;9.026;2023-04-21T05:35:48;3.70;99.90
15288;DHT22;7745;48.708;9.026;2023-04-21T05:38:15;3.80;99.90
15288;DHT22;7745;48.708;9.026;2023-04-21T05:40:43;3.90;99.90
15288;DHT22;7745;48.708;9.026;2023-04-21T05:43:09;3.90;99.90
15288;DHT22;7745;48.708;9.026;2023-04-21T05:45:38;4.00;99.90
15288;DHT22;7745;48.708;9.026;2023-04-21T05:48:05;4.10;99.90
15288;DHT22;7745;48.708;9.026;2023-04-21T05:50:32;4.20;99.90
15288;DHT22;7745;48.708;9.026;2023-04-21T05:53:00;4.20;99.90
15288;DHT22;7745;48.708;9.026;2023-04-21T05:55:27;4.20;99.90
15288;DHT22;7745;48.708;9.026;2023-04-21T05:57:55;4.20;99.90
15288;DHT22;7745;48.708;9.026;2023-04-21T06:00:22;4.10;99.90
15288;DHT22;7745;48.708;9.026;2023-04-21T06:02:49;4.10;99.90
15288;DHT22;7745;48.708;9.026;2023-04-21T06:05:16;4.10;99.90
15288;DHT22;7745;48.708;9.026;2023-04-21T06:07:43;4.20;99.90
15288;DHT22;7745;48.708;9.026;2023-04-21T06:10:11;4.30;99.90
15288;DHT22;7745;48.708;9.026;2023-04-21T06:12:38;4.30;99.90
15288;DHT22;7745;48.708;9.026;2023-04-21T06:15:07;4.40;99.90
15288;DHT22;7745;48.708;9.026;2023-04-21T06:17:34;4.40;99.90
15288;DHT22;7745;48.708;9.026;2023-04-21T06:20:01;4.40;99.90
15288;DHT22;7745;48.708;9.026;2023-04-21T06:22:28;4.40;99.90
15288;DHT22;7745;48.708;9.026;2023-04-21T06:24:55;4.40;99.90
15288;DHT22;7745;48.708;9.026;2023-04-21T06:27:23;4.40;99.90
15288;DHT22;7745;48.708;9.026;2023-04-21T06:29:53;4.50;99.90
15288;DHT22;7745;48.708;9.026;2023-04-21T06:32:22;4.50;99.90
15288;DHT22;7745;48.708;9.026;2023-04-21T06:34:49;4.60;99.90
15288;DHT22;7745;48.708;9.026;2023-04-21T06:37:15;4.80;99.90
15288;DHT22;7745;48.708;9.026;2023-04-21T06:39:42;4.90;99.90
15288;DHT22;7745;48.708;9.026;2023-04-21T06:42:09;5.00;99.90
15288;DHT22;7745;48.708;9.026;2023-04-21T06:44:36;5.10;99.90
15288;DHT22;7745;48.708;9.026;2023-04-21T06:47:03;5.30;99.90
15288;DHT22;7745;48.708;9.026;2023-04-21T06:49:31;5.60;99.90
15288;DHT22;7745;48.708;9.026;2023-04-21T06:51:59;5.70;99.90
15288;DHT22;7745;48.708;9.026;2023-04-21T06:54:25;6.00;99.90
15288;DHT22;7745;48.708;9.026;2023-04-21T06:56:52;6.20;99.90
15288;DHT22;7745;48.708;9.026;2023-04-21T06:59:19;6.30;99.90
15288;DHT22;7745;48.708;9.026;2023-04-21T07:01:46;6.30;99.90
15288;DHT22;7745;48.708;9.026;2023-04-21T07:04:13;6.60;99.90
15288;DHT22;7745;48.708;9.026;2023-04-21T07:06:41;6.20;99.90
15288;DHT22;7745;48.708;9.026;2023-04-21T07:09:09;6.20;99.90
15288;DHT22;7745;48.708;9.026;2023-04-21T07:11:35;6.20;99.90
15288;DHT22;7745;48.708;9.026;2023-04-21T07:14:02;6.30;99.90
15288;DHT22;7745;48.708;9.026;2023-04-21T07:16:29;6.30;99.90
15288;DHT22;7745;48.708;9.026;2023-04-21T07:18:56;6.30;99.90
15288;DHT22;7745;48.708;9.026;2023-04-21T07:21:23;6.30;99.90
15288;DHT22;7745;48.708;9.026;2023-04-21T07:23:51;6.30;99.90
15288;DHT22;7745;48.708;9.026;2023-04-21T07:26:18;6.20;99.90
15288;DHT22;7745;48.708;9.026;2023-04-21T07:28:45;6.20;99.90
15288;DHT22;7745;48.708;9.026;2023-04-21T07:31:12;6.20;99.90
15288;DHT22;7745;48.708;9.026;2023-04-21T07:33:39;6.20;99.90
15288;DHT22;7745;48.708;9.026;2023-04-21T07:36:06;6.30;99.90
15288;DHT22;7745;48.708;9.026;2023-04-21T07:38:33;6.40;99.90
15288;DHT22;7745;48.708;9.026;2023-04-21T07:41:01;6.50;99.90
15288;DHT22;7745;48.708;9.026;2023-04-21T07:43:28;6.60;99.90
15288;DHT22;7745;48.708;9.026;2023-04-21T07:45:56;6.70;99.90
15288;DHT22;7745;48.708;9.026;2023-04-21T07:48:23;6.80;99.90
15288;DHT22;7745;48.708;9.026;2023-04-21T07:50:49;7.00;99.90
15288;DHT22;7745;48.708;9.026;2023-04-21T07:53:17;7.20;99.90
15288;DHT22;7745;48.708;9.026;2023-04-21T07:55:44;7.40;99.90
15288;DHT22;7745;48.708;9.026;2023-04-21T07:58:12;7.70;99.90
15288;DHT22;7745;48.708;9.026;2023-04-21T08:00:41;7.80;99.90
15288;DHT22;7745;48.708;9.026;2023-04-21T08:03:08;8.10;99.90
15288;DHT22;7745;48.708;9.026;2023-04-21T08:05:34;8.20;99.90
15288;DHT22;7745;48.708;9.026;2023-04-21T08:08:01;8.40;99.90
15288;DHT22;7745;48.708;9.026;2023-04-21T08:10:42;8.40;99.90
15288;DHT22;7745;48.708;9.026;2023-04-21T08:13:09;8.60;99.90
15288;DHT22;7745;48.708;9.026;2023-04-21T08:15:37;8.90;99.90
15288;DHT22;7745;48.708;9.026;2023-04-21T08:18:05;8.90;99.90
15288;DHT22;7745;48.708;9.026;2023-04-21T08:20:32;9.00;99.90
15288;DHT22;7745;48.708;9.026;2023-04-21T08:22:59;9.10;99.90
15288;DHT22;7745;48.708;9.026;2023-04-21T08:25:25;9.10;99.90
15288;DHT22;7745;48.708;9.026;2023-04-21T08:27:52;9.20;99.90
15288;DHT22;7745;48.708;9.026;2023-04-21T08:30:19;9.30;99.90
15288;DHT22;7745;48.708;9.026;2023-04-21T08:32:47;9.40;99.90
15288;DHT22;7745;48.708;9.026;2023-04-21T08:35:14;9.50;99.90
15288;DHT22;7745;48.708;9.026;2023-04-21T08:37:40;9.60;99.90
15288;DHT22;7745;48.708;9.026;2023-04-21T08:40:08;9.70;99.90
15288;DHT22;7745;48.708;9.026;2023-04-21T08:42:35;9.80;99.90
15288;DHT22;7745;48.708;9.026;2023-04-21T08:45:04;9.90;99.90
15288;DHT22;7745;48.708;9.026;2023-04-21T08:47:31;10.00;99.90
15288;DHT22;7745;48.708;9.026;2023-04-21T08:50:00;10.10;99.90
15288;DHT22;7745;48.708;9.026;2023-04-21T08:52:27;10.00;99.90
15288;DHT22;7745;48.708;9.026;2023-04-21T08:54:54;10.10;99.90
15288;DHT22;7745;48.708;9.026;2023-04-21T08:57:21;10.40;99.90
15288;DHT22;7745;48.708;9.026;2023-04-21T08:59:48;10.30;99.90
15288;DHT22;7745;48.708;9.026;2023-04-21T09:02:16;10.30;99.90
15288;DHT22;7745;48.708;9.026;2023-04-21T09:04:45;10.30;99.90
15288;DHT22;7745;48.708;9.026;2023-04-21T09:07:29;10.50;99.90
15288;DHT22;7745;48.708;9.026;2023-04-21T09:09:57;10.40;99.90
15288;DHT22;7745;48.708;9.026;2023-04-21T09:12:26;10.70;99.90
15288;DHT22;7745;48.708;9.026;2023-04-21T09:14:54;10.70;99.90
15288;DHT22;7745;48.708;9.026;2023-04-21T09:17:28;10.60;99.90
15288;DHT22;7745;48.708;9.026;2023-04-21T09:19:56;10.70;99.90
15288;DHT22;7745;48.708;9.026;2023-04-21T09:22:26;10.80;99.90
15288;DHT22;7745;48.708;9.026;2023-04-21T09:24:57;10.90;99.90
15288;DHT22;7745;48.708;9.026;2023-04-21T09:27:25;11.00;99.90
15288;DHT22;7745;48.708;9.026;2023-04-21T09:29:51;11.00;99.90
15288;DHT22;7745;48.708;9.026;2023-04-21T09:32:23;11.10;99.90
15288;DHT22;7745;48.708;9.026;2023-04-21T09:35:01;11.00;99.90
15288;DHT22;7745;48.708;9.026;2023-04-21T09:37:31;11.00;99.90
15288;DHT22;7745;48.708;9.026;2023-04-21T09:39:59;11.10;99.90
15288;DHT22;7745;48.708;9.026;2023-04-21T09:42:30;11.20;99.90
15288;DHT22;7745;48.708;9.026;2023-04-21T09:45:08;11.20;99.90
15288;DHT22;7745;48.708;9.026;2023-04-21T09:47:39;11.30;99.90
15288;DHT22;7745;48.708;9.026;2023-04-21T09:50:08;11.40;99.90
15288;DHT22;7745;48.708;9.026;2023-04-21T09:52:37;11.50;99.90
15288;DHT22;7745;48.708;9.026;2023-04-21T09:55:10;11.50;99.90
15288;DHT22;7745;48.708;9.026;2023-04-21T09:57:38;11.50;99.90
15288;DHT22;7745;48.708;9.026;2023-04-21T10:00:08;11.60;99.90
15288;DHT22;7745;48.708;9.026;2023-04-21T10:02:41;11.90;99.90
15288;DHT22;7745;48.708;9.026;2023-04-21T10:05:09;12.10;99.90
15288;DHT22;7745;48.708;9.026;2023-04-21T10:07:37;12.50;99.90
15288;DHT22;7745;48.708;9.026;2023-04-21T10:10:08;12.60;99.90
15288;DHT22;7745;48.708;9.026;2023-04-21T10:12:38;12.70;99.90
15288;DHT22;7745;48.708;9.026;2023-04-21T10:15:09;12.80;99.90
15288;DHT22;7745;48.708;9.026;2023-04-21T10:17:53;12.90;99.90
15288;DHT22;7745;48.708;9.026;2023-04-21T10:20:52;12.80;99.90
15288;DHT22;7745;48.708;9.026;2023-04-21T10:23:27;12.80;99.90
15288;DHT22;7745;48.708;9.026;2023-04-21T10:26:00;13.00;99.90
15288;DHT22;7745;48.708;9.026;2023-04-21T10:28:42;13.00;99.90
15288;DHT22;7745;48.708;9.026;2023-04-21T10:31:20;12.90;99.90
15288;DHT22;7745;48.708;9.026;2023-04-21T10:34:13;13.10;99.90
15288;DHT22;7745;48.708;9.026;2023-04-21T10:39:34;13.40;99.90
15288;DHT22;7745;48.708;9.026;2023-04-21T10:42:20;13.30;99.90
15288;DHT22;7745;48.708;9.026;2023-04-21T10:47:39;13.20;99.90
15288;DHT22;7745;48.708;9.026;2023-04-21T10:50:15;13.30;99.90
15288;DHT22;7745;48.708;9.026;2023-04-21T10:52:44;13.40;99.90
15288;DHT22;7745;48.708;9.026;2023-04-21T10:55:12;13.30;99.90
15288;DHT22;7745;48.708;9.026;2023-04-21T10:57:42;13.60;99.90
15288;DHT22;7745;48.708;9.026;2023-04-21T11:00:10;13.90;99.90
15288;DHT22;7745;48.708;9.026;2023-04-21T11:02:41;13.90;99.90
15288;DHT22;7745;48.708;9.026;2023-04-21T11:05:09;13.70;99.90
15288;DHT22;7745;48.708;9.026;2023-04-21T11:07:35;13.60;99.90
15288;DHT22;7745;48.708;9.026;2023-04-21T11:10:04;13.50;99.90
15288;DHT22;7745;48.708;9.026;2023-04-21T11:12:35;13.60;99.90
15288;DHT22;7745;48.708;9.026;2023-04-21T11:15:04;13.70;99.90
15288;DHT22;7745;48.708;9.026;2023-04-21T11:17:33;13.80;99.90
15288;DHT22;7745;48.708;9.026;2023-04-21T11:20:01;13.90;99.90
15288;DHT22;7745;48.708;9.026;2023-04-21T11:22:30;13.80;99.90
15288;DHT22;7745;48.708;9.026;2023-04-21T11:24:57;13.90;99.90
15288;DHT22;7745;48.708;9.026;2023-04-21T11:27:26;13.80;99.90
15288;DHT22;7745;48.708;9.026;2023-04-21T11:29:55;13.90;99.90
15288;DHT22;7745;48.708;9.026;2023-04-21T11:32:23;13.80;99.90
15288;DHT22;7745;48.708;9.026;2023-04-21T11:34:50;13.70;99.90
15288;DHT22;7745;48.708;9.026;2023-04-21T11:37:22;13.70;99.90
15288;DHT22;7745;48.708;9.026;2023-04-21T11:39:55;13.80;99.90
15288;DHT22;7745;48.708;9.026;2023-04-21T11:42:21;13.80;99.90
15288;DHT22;7745;48.708;9.026;2023-04-21T11:44:48;14.00;99.90
15288;DHT22;7745;48.708;9.026;2023-04-21T11:47:18;14.00;99.90
15288;DHT22;7745;48.708;9.026;2023-04-21T11:49:46;14.00;99.90
15288;DHT22;7745;48.708;9.026;2023-04-21T11:52:23;14.00;99.90
15288;DHT22;7745;48.708;9.026;2023-04-21T11:54:54;14.30;99.90
15288;DHT22;7745;48.708;9.026;2023-04-21T11:57:22;14.30;99.90
15288;DHT22;7745;48.708;9.026;2023-04-21T11:59:49;14.40;99.90
15288;DHT22;7745;48.708;9.026;2023-04-21T12:02:23;14.30;99.90
15288;DHT22;7745;48.708;9.026;2023-04-21T12:05:00;14.30;99.90
15288;DHT22;7745;48.708;9.026;2023-04-21T12:07:29;14.30;99.90
15288;DHT22;7745;48.708;9.026;2023-04-21T12:09:57;14.30;99.90
15288;DHT22;7745;48.708;9.026;2023-04-21T12:12:26;14.20;99.90
15288;DHT22;7745;48.708;9.026;2023-04-21T12:14:53;14.20;99.90
15288;DHT22;7745;48.708;9.026;2023-04-21T12:17:22;14.50;99.90
15288;DHT22;7745;48.708;9.026;2023-04-21T12:19:51;14.60;99.90
15288;DHT22;7745;48.708;9.026;2023-04-21T12:22:17;14.50;99.90
15288;DHT22;7745;48.708;9.026;2023-04-21T12:24:46;14.30;99.90
15288;DHT22;7745;48.708;9.026;2023-04-21T12:27:14;14.40;99.90
15288;DHT22;7745;48.708;9.026;2023-04-21T12:29:45;14.30;99.90
15288;DHT22;7745;48.708;9.026;2023-04-21T12:32:13;14.50;99.90
15288;DHT22;7745;48.708;9.026;2023-04-21T12:34:43;14.60;99.90
15288;DHT22;7745;48.708;9.026;2023-04-21T12:37:19;14.60;99.90
15288;DHT22;7745;48.708;9.026;2023-04-21T12:39:54;15.00;99.90
15288;DHT22;7745;48.708;9.026;2023-04-21T12:42:22;15.00;99.90
15288;DHT22;7745;48.708;9.026;2023-04-21T12:45:00;15.40;99.90
15288;DHT22;7745;48.708;9.026;2023-04-21T12:47:27;15.30;99.90
15288;DHT22;7745;48.708;9.026;2023-04-21T12:49:57;15.40;99.90
15288;DHT22;7745;48.708;9.026;2023-04-21T12:52:26;15.20;99.90
15288;DHT22;7745;48.708;9.026;2023-04-21T12:54:57;15.10;99.90
15288;DHT22;7745;48.708;9.026;2023-04-21T12:57:30;15.10;99.90
15288;DHT22;7745;48.708;9.026;2023-04-21T12:59:59;15.30;99.90
15288;DHT22;7745;48.708;9.026;2023-04-21T13:02:26;15.50;99.90
15288;DHT22;7745;48.708;9.026;2023-04-21T13:04:52;15.80;99.90
15288;DHT22;7745;48.708;9.026;2023-04-21T13:07:20;16.00;99.90
15288;DHT22;7745;48.708;9.026;2023-04-21T13:09:51;16.00;99.90
15288;DHT22;7745;48.708;9.026;2023-04-21T13:12:17;15.80;99.90
15288;DHT22;7745;48.708;9.026;2023-04-21T13:14:44;15.80;99.90
15288;DHT22;7745;48.708;9.026;2023-04-21T13:17:11;15.70;99.90
15288;DHT22;7745;48.708;9.026;2023-04-21T13:19:38;15.60;99.90
15288;DHT22;7745;48.708;9.026;2023-04-21T13:22:05;15.80;99.90
15288;DHT22;7745;48.708;9.026;2023-04-21T13:24:33;16.20;99.90
15288;DHT22;7745;48.708;9.026;2023-04-21T13:27:00;16.50;99.90
15288;DHT22;7745;48.708;9.026;2023-04-21T13:29:27;16.70;99.90
15288;DHT22;7745;48.708;9.026;2023-04-21T13:31:58;16.60;99.90
15288;DHT22;7745;48.708;9.026;2023-04-21T13:34:25;16.80;99.90
15288;DHT22;7745;48.708;9.026;2023-04-21T13:36:52;16.90;99.90
15288;DHT22;7745;48.708;9.026;2023-04-21T13:39:19;16.90;99.90
15288;DHT22;7745;48.708;9.026;2023-04-21T13:41:47;16.90;99.90
15288;DHT22;7745;48.708;9.026;2023-04-21T13:44:14;16.80;99.90
15288;DHT22;7745;48.708;9.026;2023-04-21T13:46:41;16.80;99.90
15288;DHT22;7745;48.708;9.026;2023-04-21T13:49:07;16.70;99.90
15288;DHT22;7745;48.708;9.026;2023-04-21T13:51:34;16.80;99.90
15288;DHT22;7745;48.708;9.026;2023-04-21T13:54:01;16.70;99.90
15288;DHT22;7745;48.708;9.026;2023-04-21T13:56:28;16.70;99.90
15288;DHT22;7745;48.708;9.026;2023-04-21T13:58:56;16.60;99.90
15288;DHT22;7745;48.708;9.026;2023-04-21T14:01:23;16.40;99.90
15288;DHT22;7745;48.708;9.026;2023-04-21T14:03:50;16.40;99.90
15288;DHT22;7745;48.708;9.026;2023-04-21T14:06:18;16.40;99.90
15288;DHT22;7745;48.708;9.026;2023-04-21T14:08:45;16.60;99.90
15288;DHT22;7745;48.708;9.026;2023-04-21T14:11:11;16.70;99.90
15288;DHT22;7745;48.708;9.026;2023-04-21T14:13:38;16.60;99.90
15288;DHT22;7745;48.708;9.026;2023-04-21T14:16:06;16.60;99.90
15288;DHT22;7745;48.708;9.026;2023-04-21T14:18:33;16.60;99.90
15288;DHT22;7745;48.708;9.026;2023-04-21T14:21:00;16.50;99.90
15288;DHT22;7745;48.708;9.026;2023-04-21T14:23:27;16.50;99.90
15288;DHT22;7745;48.708;9.026;2023-04-21T14:25:54;16.30;99.90
15288;DHT22;7745;48.708;9.026;2023-04-21T14:28:21;16.50;99.90
15288;DHT22;7745;48.708;9.026;2023-04-21T14:30:48;16.70;99.90
15288;DHT22;7745;48.708;9.026;2023-04-21T14:33:16;16.80;99.90
15288;DHT22;7745;48.708;9.026;2023-04-21T14:35:43;16.90;99.90
15288;DHT22;7745;48.708;9.026;2023-04-21T14:38:10;16.90;99.90
15288;DHT22;7745;48.708;9.026;2023-04-21T14:40:38;16.90;99.90
15288;DHT22;7745;48.708;9.026;2023-04-21T14:43:05;17.00;99.90
15288;DHT22;7745;48.708;9.026;2023-04-21T14:45:38;17.00;99.90
15288;DHT22;7745;48.708;9.026;2023-04-21T14:48:08;17.00;99.90
15288;DHT22;7745;48.708;9.026;2023-04-21T14:50:45;16.90;99.90
15288;DHT22;7745;48.708;9.026;2023-04-21T14:53:19;16.90;99.90
15288;DHT22;7745;48.708;9.026;2023-04-21T14:55:46;16.90;99.90
15288;DHT22;7745;48.708;9.026;2023-04-21T14:58:13;16.80;99.90
15288;DHT22;7745;48.708;9.026;2023-04-21T15:00:40;16.70;99.90
15288;DHT22;7745;48.708;9.026;2023-04-21T15:03:07;16.60;99.90
15288;DHT22;7745;48.708;9.026;2023-04-21T15:05:34;16.50;99.90
15288;DHT22;7745;48.708;9.026;2023-04-21T15:08:02;16.60;99.90
15288;DHT22;7745;48.708;9.026;2023-04-21T15:10:29;16.50;99.90
15288;DHT22;7745;48.708;9.026;2023-04-21T15:12:56;16.50;99.90
15288;DHT22;7745;48.708;9.026;2023-04-21T15:15:24;16.40;99.90
15288;DHT22;7745;48.708;9.026;2023-04-21T15:17:50;16.40;99.90
15288;DHT22;7745;48.708;9.026;2023-04-21T15:20:17;16.50;99.90
15288;DHT22;7745;48.708;9.026;2023-04-21T15:22:44;16.40;99.90
15288;DHT22;7745;48.708;9.026;2023-04-21T15:25:12;16.30;99.90
15288;DHT22;7745;48.708;9.026;2023-04-21T15:27:39;16.30;99.90
15288;DHT22;7745;48.708;9.026;2023-04-21T15:30:07;16.30;99.90
15288;DHT22;7745;48.708;9.026;2023-04-21T15:32:34;16.30;99.90
15288;DHT22;7745;48.708;9.026;2023-04-21T15:35:00;16.30;99.90
15288;DHT22;7745;48.708;9.026;2023-04-21T15:37:27;16.30;99.90
15288;DHT22;7745;48.708;9.026;2023-04-21T15:39:54;16.40;99.90
15288;DHT22;7745;48.708;9.026;2023-04-21T15:42:22;16.40;99.90
15288;DHT22;7745;48.708;9.026;2023-04-21T15:44:49;16.50;99.90
15288;DHT22;7745;48.708;9.026;2023-04-21T15:47:18;16.50;99.90
15288;DHT22;7745;48.708;9.026;2023-04-21T15:49:44;16.70;99.90
15288;DHT22;7745;48.708;9.026;2023-04-21T15:52:11;16.70;99.90
15288;DHT22;7745;48.708;9.026;2023-04-21T15:54:38;16.80;99.90
15288;DHT22;7745;48.708;9.026;2023-04-21T15:57:05;16.90;99.90
15288;DHT22;7745;48.708;9.026;2023-04-21T15:59:33;16.90;99.90
15288;DHT22;7745;48.708;9.026;2023-04-21T16:02:00;17.10;99.90
15288;DHT22;7745;48.708;9.026;2023-04-21T16:04:26;17.10;99.90
15288;DHT22;7745;48.708;9.026;2023-04-21T16:06:53;17.20;99.90